Weather at Zheglitsa Cropduster Strip [CLOSED]

Public forecast

Using degrees Celsius for public forecast. Weather courtesy of forecast.io.

Closest aviation weather report (METAR) to Zheglitsa Cropduster Strip

Closest report is Niš Constantine the Great Airport, 52.8 nm (97.9 km) SW.

2024/05/27 22:30 (retrieved 39 minutes ago)

LYNI 272230Z VRB02KT CAVOK 13/11 Q1017 NOSIG

Closest aviation forecast (TAF) to Zheglitsa Cropduster Strip

Closest forecast is Niš Constantine the Great Airport, 52.8 nm (97.9 km) SW.

2024/05/27 18:21 (retrieved 5 hours ago)

TAF LYNI 271700Z 2718/2818 07007KT 9999 SCT040 TX24/2813Z TN09/2803Z TEMPO 2810/2816 32015G25KT 4000 TSRA SCT033CB SCT040 TEMPO 2816/2818 4000 SHRA SCT033TCU SCT040